createdAt,value
2018-09-02T00:00:30.501Z,99.90
2018-09-02T00:02:34.650Z,99.90
2018-09-02T00:04:38.654Z,99.90
2018-09-02T00:06:42.694Z,99.90
2018-09-02T00:08:46.583Z,99.90
2018-09-02T00:10:50.562Z,99.90
2018-09-02T00:12:54.544Z,99.90
2018-09-02T00:14:58.477Z,99.90
2018-09-02T00:17:02.425Z,99.90
2018-09-02T00:19:06.362Z,99.90
2018-09-02T00:21:10.530Z,99.90
2018-09-02T00:23:14.624Z,99.90
2018-09-02T00:25:19.086Z,99.90
2018-09-02T00:27:23.199Z,99.90
2018-09-02T00:29:27.237Z,99.90
2018-09-02T00:31:31.198Z,99.90
2018-09-02T00:33:35.334Z,99.90
2018-09-02T00:35:39.447Z,99.90
2018-09-02T00:37:43.343Z,99.90
2018-09-02T00:39:47.244Z,99.90
2018-09-02T00:41:51.476Z,99.90
2018-09-02T00:43:55.576Z,99.90
2018-09-02T00:45:59.617Z,99.90
2018-09-02T00:48:03.644Z,99.90
2018-09-02T00:50:08.486Z,99.90
2018-09-02T00:52:12.631Z,99.90
2018-09-02T00:54:16.826Z,99.90
2018-09-02T00:56:20.851Z,99.90
2018-09-02T00:58:24.873Z,99.90
2018-09-02T01:00:29.077Z,99.90
2018-09-02T01:02:33.095Z,99.90
2018-09-02T01:04:37.038Z,99.90
2018-09-02T01:06:40.883Z,99.90
2018-09-02T01:08:45.262Z,99.90
2018-09-02T01:10:49.772Z,99.90
2018-09-02T01:12:53.715Z,99.90
2018-09-02T01:14:57.727Z,99.90
2018-09-02T01:17:01.975Z,99.90
2018-09-02T01:19:05.924Z,99.90
2018-09-02T01:21:10.086Z,99.90
2018-09-02T01:23:14.390Z,99.90
2018-09-02T01:25:18.357Z,99.90
2018-09-02T01:27:22.314Z,99.90
2018-09-02T01:29:26.297Z,99.90
2018-09-02T01:31:30.527Z,99.90
2018-09-02T01:33:34.779Z,99.90
2018-09-02T01:35:38.649Z,99.90
2018-09-02T01:37:42.667Z,99.90
2018-09-02T01:39:46.783Z,99.90
2018-09-02T01:41:51.259Z,99.90
2018-09-02T01:43:55.312Z,99.90
2018-09-02T01:45:59.308Z,99.90
2018-09-02T01:48:03.869Z,99.90
2018-09-02T01:50:08.140Z,99.90
2018-09-02T01:52:12.285Z,99.90
2018-09-02T01:54:16.397Z,99.90
2018-09-02T01:56:20.380Z,99.90
2018-09-02T01:58:24.369Z,99.90
2018-09-02T02:00:28.518Z,99.90
2018-09-02T02:02:32.708Z,99.90
2018-09-02T02:04:42.047Z,99.90
2018-09-02T02:06:46.108Z,99.90
2018-09-02T02:08:50.170Z,99.90
2018-09-02T02:10:54.296Z,99.90
2018-09-02T02:12:59.757Z,99.90
2018-09-02T02:15:04.181Z,99.90
2018-09-02T02:17:08.197Z,99.90
2018-09-02T02:19:12.246Z,99.90
2018-09-02T02:21:16.174Z,99.90
2018-09-02T02:23:20.254Z,99.90
2018-09-02T02:25:24.650Z,99.90
2018-09-02T02:27:28.457Z,99.90
2018-09-02T02:29:32.292Z,99.90
2018-09-02T02:31:36.312Z,99.90
2018-09-02T02:33:40.367Z,99.90
2018-09-02T02:35:44.507Z,99.90
2018-09-02T02:37:48.514Z,99.90
2018-09-02T02:39:52.562Z,99.90
2018-09-02T02:41:56.737Z,99.90
2018-09-02T02:44:00.719Z,99.90
2018-09-02T02:46:04.942Z,99.90
2018-09-02T02:48:08.948Z,99.90
2018-09-02T02:50:13.140Z,99.90
2018-09-02T02:52:17.167Z,99.90
2018-09-02T02:54:21.211Z,99.90
2018-09-02T02:56:25.172Z,99.90
2018-09-02T02:58:29.211Z,99.90
2018-09-02T03:00:33.542Z,99.90
2018-09-02T03:02:37.717Z,99.90
2018-09-02T03:04:42.153Z,99.90
2018-09-02T03:06:46.138Z,99.90
2018-09-02T03:08:50.225Z,99.90
2018-09-02T03:10:54.523Z,99.90
2018-09-02T03:12:58.578Z,99.90
2018-09-02T03:17:06.182Z,99.90
2018-09-02T03:19:10.336Z,99.90
2018-09-02T03:21:14.343Z,99.90
2018-09-02T03:23:18.385Z,99.90
2018-09-02T03:25:22.756Z,99.90
2018-09-02T03:27:27.039Z,99.90
2018-09-02T03:29:31.114Z,99.90
2018-09-02T03:31:35.134Z,99.90
2018-09-02T03:33:39.102Z,99.90
2018-09-02T03:35:43.158Z,99.90
2018-09-02T03:37:46.953Z,99.90
2018-09-02T03:39:50.865Z,99.90
2018-09-02T03:41:54.672Z,99.90
2018-09-02T03:43:58.779Z,99.90
2018-09-02T03:46:03.106Z,99.90
2018-09-02T03:48:06.972Z,99.90
2018-09-02T03:50:11.258Z,99.90
2018-09-02T03:52:15.583Z,99.90
2018-09-02T03:54:19.728Z,99.90
2018-09-02T03:56:23.633Z,99.90
2018-09-02T03:58:27.514Z,99.90
2018-09-02T04:00:31.339Z,99.90
2018-09-02T04:02:35.184Z,99.90
2018-09-02T04:04:39.341Z,99.90
2018-09-02T04:06:43.075Z,99.90
2018-09-02T04:08:47.282Z,99.90
2018-09-02T04:10:51.273Z,99.90
2018-09-02T04:12:55.290Z,99.90
2018-09-02T04:14:59.325Z,99.90
2018-09-02T04:17:03.333Z,99.90
2018-09-02T04:19:07.156Z,99.90
2018-09-02T04:21:11.069Z,99.90
2018-09-02T04:23:15.129Z,99.90
2018-09-02T04:25:18.853Z,99.90
2018-09-02T04:27:22.627Z,99.90
2018-09-02T04:29:26.530Z,99.90
2018-09-02T04:31:30.617Z,99.90
2018-09-02T04:33:34.629Z,99.90
2018-09-02T04:35:38.756Z,99.90
2018-09-02T04:37:42.624Z,99.90
2018-09-02T04:39:46.673Z,99.90
2018-09-02T04:41:50.967Z,99.90
2018-09-02T04:43:55.367Z,99.90
2018-09-02T04:45:59.627Z,99.90
2018-09-02T04:48:03.577Z,99.90
2018-09-02T04:50:18.529Z,99.90
2018-09-02T04:52:22.583Z,99.90
2018-09-02T04:54:26.565Z,99.90
2018-09-02T04:58:34.070Z,99.90
2018-09-02T05:00:38.043Z,99.90
2018-09-02T05:02:41.978Z,99.90
2018-09-02T05:04:46.099Z,99.90
2018-09-02T05:06:50.054Z,99.90
2018-09-02T05:08:53.820Z,99.90
2018-09-02T05:10:57.853Z,99.90
2018-09-02T05:13:01.870Z,99.90
2018-09-02T05:15:05.871Z,99.90
2018-09-02T05:17:09.800Z,99.90
2018-09-02T05:19:13.644Z,99.90
2018-09-02T05:21:17.648Z,99.90
2018-09-02T05:23:21.657Z,99.90
2018-09-02T05:25:25.756Z,99.90
2018-09-02T05:27:29.930Z,99.90
2018-09-02T05:29:34.086Z,99.90
2018-09-02T05:31:38.127Z,99.90
2018-09-02T05:33:42.239Z,99.90
2018-09-02T05:35:46.290Z,99.90
2018-09-02T05:37:50.292Z,99.90
2018-09-02T05:39:54.316Z,99.90
2018-09-02T05:41:58.270Z,99.90
2018-09-02T05:44:02.389Z,99.90
2018-09-02T05:46:06.613Z,99.90
2018-09-02T05:48:10.710Z,99.90
2018-09-02T05:50:14.793Z,99.90
2018-09-02T05:52:21.646Z,99.90
2018-09-02T05:54:25.705Z,99.90
2018-09-02T05:56:29.701Z,99.90
2018-09-02T05:58:33.701Z,99.90
2018-09-02T06:00:37.671Z,99.90
2018-09-02T06:02:41.737Z,99.90
2018-09-02T06:04:45.811Z,99.90
2018-09-02T06:06:49.901Z,99.90
2018-09-02T06:08:53.885Z,99.90
2018-09-02T06:10:57.825Z,99.90
2018-09-02T06:13:01.900Z,99.90
2018-09-02T06:15:06.196Z,99.90
2018-09-02T06:17:09.996Z,99.90
2018-09-02T06:19:14.216Z,99.90
2018-09-02T06:21:18.239Z,99.90
2018-09-02T06:23:24.887Z,99.90
2018-09-02T06:25:28.959Z,99.90
2018-09-02T06:27:32.973Z,99.90
2018-09-02T06:31:40.692Z,99.90
2018-09-02T06:33:44.718Z,99.90
2018-09-02T06:37:52.655Z,99.90
2018-09-02T06:41:59.919Z,99.90
2018-09-02T06:44:03.755Z,99.90
2018-09-02T06:46:07.520Z,99.90
2018-09-02T06:48:11.351Z,99.90
2018-09-02T06:50:15.139Z,99.90
2018-09-02T06:52:18.948Z,99.90
2018-09-02T06:54:23.153Z,99.90
2018-09-02T06:56:27.072Z,99.90
2018-09-02T06:58:30.908Z,99.90
2018-09-02T07:00:36.134Z,99.90
2018-09-02T07:02:39.916Z,99.90
2018-09-02T07:04:43.852Z,99.90
2018-09-02T07:06:47.671Z,99.90
2018-09-02T07:08:51.376Z,99.90
2018-09-02T07:10:55.164Z,99.90
2018-09-02T07:12:59.050Z,99.90
2018-09-02T07:15:02.841Z,99.90
2018-09-02T07:17:06.681Z,99.90
2018-09-02T07:19:10.465Z,99.90
2018-09-02T07:21:14.302Z,99.90
2018-09-02T07:23:18.546Z,99.90
2018-09-02T07:25:22.590Z,99.90
2018-09-02T07:27:26.643Z,99.90
2018-09-02T07:29:31.158Z,99.90
2018-09-02T07:31:35.313Z,99.90
2018-09-02T07:33:39.342Z,99.90
2018-09-02T07:35:43.564Z,99.90
2018-09-02T07:37:47.383Z,99.90
2018-09-02T07:39:51.510Z,99.90
2018-09-02T07:41:55.353Z,99.90
2018-09-02T07:44:00.145Z,99.90
2018-09-02T07:46:04.024Z,99.90
2018-09-02T07:48:07.859Z,99.90
2018-09-02T07:50:11.620Z,99.90
2018-09-02T07:52:15.321Z,99.90
2018-09-02T07:54:19.140Z,99.90
2018-09-02T07:56:23.040Z,99.90
2018-09-02T07:58:27.037Z,99.90
2018-09-02T08:00:30.795Z,99.90
2018-09-02T08:02:34.745Z,99.90
2018-09-02T08:04:38.475Z,99.90
2018-09-02T08:06:42.234Z,99.90
2018-09-02T08:08:46.281Z,99.90
2018-09-02T08:10:50.040Z,99.90
2018-09-02T08:12:54.136Z,99.90
2018-09-02T08:14:57.847Z,99.90
2018-09-02T08:17:01.574Z,99.90
2018-09-02T08:19:05.452Z,99.90
2018-09-02T08:21:09.227Z,99.90
2018-09-02T08:23:13.084Z,99.90
2018-09-02T08:25:16.979Z,99.90
2018-09-02T08:27:20.733Z,99.90
2018-09-02T08:29:24.478Z,99.90
2018-09-02T08:31:28.764Z,99.90
2018-09-02T08:33:32.504Z,99.90
2018-09-02T08:35:36.310Z,99.90
2018-09-02T08:37:40.048Z,99.90
2018-09-02T08:39:43.812Z,99.90
2018-09-02T08:41:47.612Z,99.90
2018-09-02T08:45:54.708Z,99.90
2018-09-02T08:47:58.727Z,99.90
2018-09-02T08:50:02.520Z,99.90
2018-09-02T08:52:06.626Z,99.90
2018-09-02T08:54:10.357Z,99.90
2018-09-02T08:56:14.284Z,99.90
2018-09-02T08:58:18.095Z,99.90
2018-09-02T09:00:21.961Z,99.90
2018-09-02T09:02:25.752Z,99.90
2018-09-02T09:04:29.500Z,99.90
2018-09-02T09:06:33.315Z,99.90
2018-09-02T09:08:37.175Z,99.90
2018-09-02T09:10:40.894Z,99.90
2018-09-02T09:14:48.731Z,99.90
2018-09-02T09:16:52.630Z,99.90
2018-09-02T09:18:56.451Z,99.90
2018-09-02T09:21:00.330Z,99.90
2018-09-02T09:23:04.092Z,99.90
2018-09-02T09:25:09.726Z,99.90
2018-09-02T09:27:13.493Z,99.90
2018-09-02T09:29:17.449Z,98.20
2018-09-02T09:31:21.239Z,97.10
2018-09-02T09:33:25.114Z,97.90
2018-09-02T09:35:28.962Z,96.90
2018-09-02T09:37:32.816Z,97.00
2018-09-02T09:39:36.701Z,98.90
2018-09-02T09:41:40.793Z,98.80
2018-09-02T09:43:44.562Z,98.30
2018-09-02T09:45:48.358Z,98.10
2018-09-02T09:47:52.072Z,98.50
2018-09-02T09:49:56.013Z,97.90
2018-09-02T09:51:59.987Z,96.10
2018-09-02T09:54:04.347Z,96.30
2018-09-02T09:56:08.242Z,95.60
2018-09-02T09:58:12.447Z,95.60
2018-09-02T10:00:20.776Z,95.20
2018-09-02T10:02:25.304Z,94.90
2018-09-02T10:04:29.405Z,93.00
2018-09-02T10:06:34.890Z,94.60
2018-09-02T10:08:39.179Z,95.10
2018-09-02T10:10:43.385Z,95.40
2018-09-02T10:12:47.325Z,95.10
2018-09-02T10:14:51.527Z,95.20
2018-09-02T10:16:56.566Z,95.10
2018-09-02T10:19:00.472Z,94.80
2018-09-02T10:21:04.731Z,95.00
2018-09-02T10:23:09.304Z,94.90
2018-09-02T10:25:13.537Z,93.50
2018-09-02T10:27:17.761Z,91.20
2018-09-02T10:29:22.077Z,91.20
2018-09-02T10:31:26.485Z,89.70
2018-09-02T10:33:30.455Z,88.60
2018-09-02T10:35:34.482Z,88.40
2018-09-02T10:37:38.378Z,90.20
2018-09-02T10:39:42.180Z,90.80
2018-09-02T10:41:46.347Z,90.20
2018-09-02T10:43:50.603Z,90.40
2018-09-02T10:45:54.382Z,91.20
2018-09-02T10:47:58.705Z,88.50
2018-09-02T10:50:03.061Z,89.20
2018-09-02T10:52:07.253Z,88.90
2018-09-02T10:54:11.733Z,87.10
2018-09-02T10:56:15.857Z,86.90
2018-09-02T10:58:20.208Z,85.80
2018-09-02T11:00:24.317Z,85.60
2018-09-02T11:02:28.648Z,86.80
2018-09-02T11:04:33.879Z,87.50
2018-09-02T11:06:37.726Z,86.30
2018-09-02T11:08:41.638Z,87.40
2018-09-02T11:10:45.352Z,86.50
2018-09-02T11:12:49.103Z,86.60
2018-09-02T11:14:52.856Z,86.20
2018-09-02T11:16:56.600Z,86.90
2018-09-02T11:19:00.426Z,83.80
2018-09-02T11:21:04.282Z,85.00
2018-09-02T11:23:08.758Z,84.20
2018-09-02T11:25:12.535Z,83.00
2018-09-02T11:27:16.330Z,81.50
2018-09-02T11:29:20.187Z,80.60
2018-09-02T11:31:23.945Z,80.70
2018-09-02T11:33:27.804Z,80.30
2018-09-02T11:35:31.613Z,81.60
2018-09-02T11:37:35.611Z,81.00
2018-09-02T11:39:39.783Z,81.10
2018-09-02T11:41:43.825Z,82.50
2018-09-02T11:43:47.864Z,82.30
2018-09-02T11:45:51.979Z,83.30
2018-09-02T11:47:55.972Z,83.10
2018-09-02T11:49:59.900Z,81.90
2018-09-02T11:52:03.879Z,79.70
2018-09-02T11:54:08.048Z,78.90
2018-09-02T11:56:11.805Z,77.50
2018-09-02T11:58:15.868Z,77.90
2018-09-02T12:00:20.431Z,78.00
2018-09-02T12:02:24.409Z,76.20
2018-09-02T12:04:28.659Z,79.10
2018-09-02T12:06:32.754Z,79.40
2018-09-02T12:08:36.776Z,79.20
2018-09-02T12:10:40.787Z,78.40
2018-09-02T12:12:44.744Z,79.20
2018-09-02T12:14:48.761Z,80.10
2018-09-02T12:16:52.927Z,79.80
2018-09-02T12:18:56.940Z,78.70
2018-09-02T12:21:01.044Z,78.00
2018-09-02T12:23:04.869Z,76.70
2018-09-02T12:25:08.625Z,74.40
2018-09-02T12:27:12.487Z,75.50
2018-09-02T12:29:16.463Z,75.40
2018-09-02T12:31:20.269Z,73.60
2018-09-02T12:33:24.282Z,75.90
2018-09-02T12:35:28.093Z,74.70
2018-09-02T12:37:31.869Z,76.60
2018-09-02T12:39:35.697Z,76.60
2018-09-02T12:41:39.596Z,76.00
2018-09-02T12:43:43.329Z,76.50
2018-09-02T12:45:47.452Z,75.20
2018-09-02T12:47:51.361Z,76.90
2018-09-02T12:49:55.476Z,76.50
2018-09-02T12:51:59.461Z,74.90
2018-09-02T12:54:03.450Z,74.60
2018-09-02T12:56:07.418Z,74.30
2018-09-02T12:58:11.303Z,74.50
2018-09-02T13:00:15.311Z,74.50
2018-09-02T13:02:19.308Z,75.60
2018-09-02T13:04:23.529Z,75.10
2018-09-02T13:06:27.883Z,75.60
2018-09-02T13:08:31.865Z,77.10
2018-09-02T13:10:35.927Z,76.50
2018-09-02T13:12:40.129Z,76.50
2018-09-02T13:14:44.230Z,77.70
2018-09-02T13:16:55.863Z,77.60
2018-09-02T13:18:59.889Z,76.70
2018-09-02T13:21:03.963Z,77.30
2018-09-02T13:23:08.096Z,75.50
2018-09-02T13:25:12.076Z,75.10
2018-09-02T13:27:16.194Z,74.90
2018-09-02T13:29:20.442Z,75.00
2018-09-02T13:31:24.417Z,75.40
2018-09-02T13:35:32.269Z,75.40
2018-09-02T13:37:36.503Z,76.90
2018-09-02T13:39:40.521Z,77.40
2018-09-02T13:41:44.814Z,77.30
2018-09-02T13:43:49.180Z,78.20
2018-09-02T13:45:53.468Z,78.90
2018-09-02T13:47:57.715Z,77.50
2018-09-02T13:50:01.868Z,75.90
2018-09-02T13:52:06.364Z,74.00
2018-09-02T13:54:10.586Z,75.60
2018-09-02T13:56:14.544Z,73.90
2018-09-02T13:58:18.828Z,75.70
2018-09-02T14:00:23.202Z,76.00
2018-09-02T14:02:27.204Z,76.80
2018-09-02T14:04:31.456Z,76.40
2018-09-02T14:06:35.932Z,76.80
2018-09-02T14:08:39.887Z,77.80
2018-09-02T14:10:43.914Z,78.30
2018-09-02T14:12:47.897Z,78.30
2018-09-02T14:14:52.322Z,79.10
2018-09-02T14:16:56.421Z,76.20
2018-09-02T14:19:00.482Z,76.70
2018-09-02T14:21:04.716Z,76.40
2018-09-02T14:23:08.831Z,75.10
2018-09-02T14:25:12.844Z,76.00
2018-09-02T14:27:16.900Z,75.50
2018-09-02T14:29:21.035Z,74.50
2018-09-02T14:31:25.091Z,74.90
2018-09-02T14:33:29.070Z,75.60
2018-09-02T14:35:33.228Z,76.70
2018-09-02T14:37:38.519Z,77.20
2018-09-02T14:39:42.716Z,77.40
2018-09-02T14:41:46.703Z,77.70
2018-09-02T14:43:50.678Z,78.30
2018-09-02T14:45:54.887Z,78.10
2018-09-02T14:47:59.155Z,75.30
2018-09-02T14:50:03.306Z,76.70
2018-09-02T14:52:07.267Z,75.60
2018-09-02T14:54:12.375Z,75.80
2018-09-02T14:56:16.597Z,75.90
2018-09-02T14:58:20.882Z,75.20
2018-09-02T15:00:24.958Z,74.30
2018-09-02T15:02:28.957Z,75.20
2018-09-02T15:04:32.961Z,75.60
2018-09-02T15:06:37.053Z,76.30
2018-09-02T15:08:41.239Z,76.30
2018-09-02T15:10:45.324Z,76.90
2018-09-02T15:12:49.227Z,77.40
2018-09-02T15:14:53.329Z,77.90
2018-09-02T15:16:57.505Z,77.70
2018-09-02T15:19:01.522Z,79.00
2018-09-02T15:21:05.680Z,77.10
2018-09-02T15:23:10.071Z,74.80
2018-09-02T15:25:14.098Z,74.90
2018-09-02T15:27:17.859Z,75.50
2018-09-02T15:29:21.687Z,75.40
2018-09-02T15:31:25.490Z,76.10
2018-09-02T15:33:29.497Z,75.80
2018-09-02T15:35:33.231Z,75.70
2018-09-02T15:37:37.004Z,76.60
2018-09-02T15:39:40.802Z,75.00
2018-09-02T15:41:44.569Z,74.30
2018-09-02T15:43:48.569Z,74.70
2018-09-02T15:45:52.425Z,74.70
2018-09-02T15:47:56.322Z,74.20
2018-09-02T15:50:00.190Z,73.90
2018-09-02T15:52:03.960Z,73.80
2018-09-02T15:54:12.211Z,74.20
2018-09-02T15:56:15.970Z,76.00
2018-09-02T15:58:19.692Z,76.60
2018-09-02T16:00:23.585Z,77.20
2018-09-02T16:02:27.368Z,78.60
2018-09-02T16:04:31.295Z,79.00
2018-09-02T16:06:35.049Z,80.70
2018-09-02T16:08:38.961Z,79.80
2018-09-02T16:10:42.747Z,79.90
2018-09-02T16:12:46.492Z,78.50
2018-09-02T16:14:50.197Z,76.60
2018-09-02T16:16:54.025Z,76.30
2018-09-02T16:18:57.958Z,76.20
2018-09-02T16:21:01.746Z,76.30
2018-09-02T16:23:05.583Z,76.00
2018-09-02T16:25:09.549Z,77.00
2018-09-02T16:27:13.307Z,77.60
2018-09-02T16:29:17.098Z,78.60
2018-09-02T16:31:21.099Z,79.20
2018-09-02T16:33:24.875Z,78.90
2018-09-02T16:35:28.625Z,81.00
2018-09-02T16:37:32.527Z,80.70
2018-09-02T16:39:36.311Z,80.00
2018-09-02T16:43:43.566Z,78.00
2018-09-02T16:45:47.317Z,76.80
2018-09-02T16:47:51.076Z,76.00
2018-09-02T16:49:54.886Z,76.40
2018-09-02T16:51:58.663Z,76.90
2018-09-02T16:54:02.447Z,77.50
2018-09-02T16:56:06.788Z,78.20
2018-09-02T16:58:10.525Z,78.90
2018-09-02T17:00:14.283Z,79.20
2018-09-02T17:02:18.033Z,80.00
2018-09-02T17:04:22.935Z,80.50
2018-09-02T17:06:26.747Z,79.40
2018-09-02T17:08:30.814Z,79.00
2018-09-02T17:10:34.548Z,78.10
2018-09-02T17:12:38.406Z,78.20
2018-09-02T17:14:42.105Z,77.60
2018-09-02T17:16:45.936Z,77.60
2018-09-02T17:18:52.195Z,78.00
2018-09-02T17:20:55.982Z,79.90
2018-09-02T17:23:05.021Z,80.80
2018-09-02T17:25:09.168Z,81.50
2018-09-02T17:27:12.956Z,82.50
2018-09-02T17:29:16.914Z,82.60
2018-09-02T17:31:20.755Z,84.20
2018-09-02T17:33:24.576Z,83.10
2018-09-02T17:35:28.330Z,83.40
2018-09-02T17:37:32.124Z,82.40
2018-09-02T17:39:35.917Z,81.50
2018-09-02T17:41:39.973Z,80.00
2018-09-02T17:43:43.862Z,80.50
2018-09-02T17:45:47.760Z,81.80
2018-09-02T17:47:51.523Z,82.80
2018-09-02T17:49:55.303Z,83.70
2018-09-02T17:51:59.068Z,84.50
2018-09-02T17:54:02.854Z,85.70
2018-09-02T17:58:10.065Z,85.80
2018-09-02T18:02:21.368Z,86.90
2018-09-02T18:04:25.316Z,86.40
2018-09-02T18:06:29.135Z,85.40
2018-09-02T18:08:32.971Z,83.90
2018-09-02T18:10:38.016Z,83.00
2018-09-02T18:12:42.012Z,82.90
2018-09-02T18:14:46.592Z,84.20
2018-09-02T18:16:50.539Z,84.80
2018-09-02T18:18:54.569Z,85.40
2018-09-02T18:20:58.360Z,85.80
2018-09-02T18:23:02.225Z,86.80
2018-09-02T18:25:06.320Z,87.50
2018-09-02T18:27:10.570Z,88.90
2018-09-02T18:29:14.562Z,88.20
2018-09-02T18:31:18.378Z,87.00
2018-09-02T18:33:22.750Z,88.00
2018-09-02T18:35:26.904Z,86.20
2018-09-02T18:37:31.076Z,85.40
2018-09-02T18:39:35.223Z,84.70
2018-09-02T18:41:39.154Z,85.20
2018-09-02T18:43:43.071Z,87.50
2018-09-02T18:45:46.883Z,87.90
2018-09-02T18:47:50.734Z,88.50
2018-09-02T18:49:54.592Z,89.60
2018-09-02T18:51:58.765Z,89.20
2018-09-02T18:54:02.958Z,90.30
2018-09-02T18:56:07.985Z,91.10
2018-09-02T18:58:12.459Z,90.60
2018-09-02T19:00:19.319Z,89.70
2018-09-02T19:02:23.606Z,88.80
2018-09-02T19:04:27.520Z,87.90
2018-09-02T19:06:32.123Z,86.80
2018-09-02T19:08:35.948Z,87.30
2018-09-02T19:10:39.927Z,88.80
2018-09-02T19:12:44.603Z,89.60
2018-09-02T19:14:48.670Z,90.00
2018-09-02T19:16:52.977Z,90.30
2018-09-02T19:18:57.420Z,90.70
2018-09-02T19:21:01.721Z,91.00
2018-09-02T19:23:06.012Z,91.30
2018-09-02T19:25:10.066Z,92.50
2018-09-02T19:29:17.544Z,91.80
2018-09-02T19:31:21.613Z,92.10
2018-09-02T19:33:25.546Z,90.40
2018-09-02T19:37:33.965Z,89.40
2018-09-02T19:39:37.713Z,90.60
2018-09-02T19:41:41.705Z,90.80
2018-09-02T19:43:45.571Z,91.40
2018-09-02T19:45:49.399Z,91.70
2018-09-02T19:47:53.178Z,92.00
2018-09-02T19:49:57.224Z,92.30
2018-09-02T19:52:01.038Z,92.80
2018-09-02T19:54:05.160Z,93.30
2018-09-02T19:56:09.330Z,93.30
2018-09-02T19:58:13.558Z,94.70
2018-09-02T20:00:17.677Z,93.60
2018-09-02T20:02:21.720Z,92.60
2018-09-02T20:04:25.588Z,90.50
2018-09-02T20:06:29.455Z,90.60
2018-09-02T20:08:33.282Z,90.00
2018-09-02T20:10:37.087Z,90.40
2018-09-02T20:12:40.983Z,90.70
2018-09-02T20:14:44.867Z,90.90
2018-09-02T20:16:48.677Z,90.90
2018-09-02T20:18:52.532Z,91.20
2018-09-02T20:20:56.343Z,91.50
2018-09-02T20:23:00.117Z,91.90
2018-09-02T20:25:04.211Z,91.90
2018-09-02T20:27:08.823Z,92.60
2018-09-02T20:29:12.636Z,92.80
2018-09-02T20:31:16.425Z,91.90
2018-09-02T20:33:20.655Z,90.80
2018-09-02T20:35:24.885Z,89.70
2018-09-02T20:37:28.959Z,89.70
2018-09-02T20:39:32.814Z,89.50
2018-09-02T20:41:36.907Z,90.00
2018-09-02T20:43:40.710Z,90.50
2018-09-02T20:45:44.621Z,91.10
2018-09-02T20:47:48.517Z,91.30
2018-09-02T20:49:52.455Z,91.90
2018-09-02T20:51:56.382Z,92.20
2018-09-02T20:54:00.871Z,92.40
2018-09-02T20:56:04.742Z,92.70
2018-09-02T20:58:08.551Z,92.70
2018-09-02T21:00:12.456Z,92.40
2018-09-02T21:02:16.296Z,92.60
2018-09-02T21:04:20.220Z,91.80
2018-09-02T21:06:24.026Z,91.60
2018-09-02T21:08:27.871Z,91.00
2018-09-02T21:10:31.589Z,90.90
2018-09-02T21:12:35.511Z,91.50
2018-09-02T21:14:39.315Z,91.60
2018-09-02T21:16:43.103Z,92.00
2018-09-02T21:18:46.941Z,92.40
2018-09-02T21:20:50.815Z,92.90
2018-09-02T21:22:54.635Z,93.20
2018-09-02T21:24:58.442Z,93.40
2018-09-02T21:27:02.370Z,93.60
2018-09-02T21:29:06.206Z,93.90
2018-09-02T21:31:10.470Z,94.40
2018-09-02T21:33:14.205Z,94.60
2018-09-02T21:35:18.011Z,94.10
2018-09-02T21:37:22.082Z,93.20
2018-09-02T21:39:25.832Z,92.60
2018-09-02T21:41:29.608Z,92.30
2018-09-02T21:43:33.411Z,92.40
2018-09-02T21:45:37.275Z,92.80
2018-09-02T21:47:41.023Z,93.20
2018-09-02T21:49:45.073Z,93.60
2018-09-02T21:51:48.855Z,94.10
2018-09-02T21:53:52.582Z,94.60
2018-09-02T21:55:56.365Z,94.70
2018-09-02T21:58:00.141Z,95.30
2018-09-02T22:00:04.982Z,95.60
2018-09-02T22:02:08.814Z,95.80
2018-09-02T22:04:12.707Z,96.50
2018-09-02T22:06:16.480Z,95.90
2018-09-02T22:08:20.287Z,95.20
2018-09-02T22:10:24.000Z,94.80
2018-09-02T22:12:27.789Z,94.30
2018-09-02T22:14:31.530Z,94.10
2018-09-02T22:16:35.519Z,94.40
2018-09-02T22:18:39.280Z,94.80
2018-09-02T22:20:43.133Z,95.70
2018-09-02T22:22:46.879Z,95.90
2018-09-02T22:24:50.607Z,96.30
2018-09-02T22:26:54.394Z,96.80
2018-09-02T22:28:58.245Z,97.10
2018-09-02T22:31:02.022Z,97.70
2018-09-02T22:33:05.977Z,97.90
2018-09-02T22:35:09.737Z,98.40
2018-09-02T22:37:13.487Z,98.50
2018-09-02T22:39:17.270Z,98.10
2018-09-02T22:41:21.113Z,97.40
2018-09-02T22:43:24.912Z,96.20
2018-09-02T22:45:28.660Z,95.90
2018-09-02T22:47:32.407Z,95.90
2018-09-02T22:49:36.401Z,96.30
2018-09-02T22:51:40.149Z,96.80
2018-09-02T22:53:43.952Z,97.30
2018-09-02T22:55:47.706Z,97.70
2018-09-02T22:57:51.488Z,98.00
2018-09-02T22:59:55.258Z,98.00
2018-09-02T23:01:59.015Z,98.70
2018-09-02T23:04:02.869Z,99.10
2018-09-02T23:06:06.644Z,99.50
2018-09-02T23:08:10.401Z,99.90
2018-09-02T23:10:14.135Z,99.90
2018-09-02T23:12:17.959Z,99.90
2018-09-02T23:14:21.744Z,98.90
2018-09-02T23:16:25.486Z,98.40
2018-09-02T23:18:29.491Z,97.80
2018-09-02T23:20:33.285Z,97.80
2018-09-02T23:22:37.060Z,98.80
2018-09-02T23:24:40.836Z,99.60
2018-09-02T23:26:44.577Z,99.80
2018-09-02T23:28:48.387Z,99.90
2018-09-02T23:30:52.219Z,99.90
2018-09-02T23:32:56.064Z,99.90
2018-09-02T23:34:59.839Z,99.90
2018-09-02T23:37:03.854Z,99.90
2018-09-02T23:39:10.067Z,99.90
2018-09-02T23:41:13.819Z,99.90
2018-09-02T23:43:17.561Z,99.90
2018-09-02T23:45:21.365Z,99.90
2018-09-02T23:47:25.140Z,99.90
2018-09-02T23:49:28.950Z,99.90
2018-09-02T23:51:32.689Z,99.90
2018-09-02T23:53:36.454Z,99.90
2018-09-02T23:55:40.229Z,99.90
2018-09-02T23:57:43.964Z,99.90
2018-09-02T23:59:47.719Z,99.90
